Miquon, Pennsylvania
Current Conditions -  °F | °C
As of 1:15 PM on Saturday 22 Nov 2014 (Local Time) from KLOM Reporting Station
Clear Clear  
Wind Chill: 39°   Ceiling: Unl
Heat Index: 45°   Visibility: 10mi
Dew Point: 19°   Wind: 12mph
Humidity: 37%   Direction: 210°SSW
Pressure: 30.33"   Gusts: 17mph
Location:  40.06°N, 75.27°W
Report Text: KLOM 221815Z AUTO 21010G15KT 10SM CLR 07/M07 A3033 RMK AO1
Loading
Personal Weather Stations






























Interactive Weather Map New forecast layout! Learn more

10-Day Weather Forecast

Advertisements
Track Severe Weather on mobile